Time;durP1;ratioP1;P1;durP2;ratioP2;P2;SDS_P1;SDS_P2;PMS_P1;PMS_P2;Temp;Humidity;BMP_temperature;BMP_pressure;BME280_temperature;BME280_humidity;BME280_pressure;Samples;Min_cycle;Max_cycle;Signal;HPM_P1;HPM_P2
2021/03/22 00:00:10;;;;;;;2.88;1.45;;;;;;;5.21;43.72;101203.03;687021;28;21509;-65
2021/03/22 00:00:37;;;;;;;1.60;1.50;;;;;;;5.19;43.74;101208.53;686781;28;17110;-65
2021/03/22 00:01:01;;;;;;;1.58;1.48;;;;;;;5.20;43.89;101212.91;682906;28;138622;-65
2021/03/22 00:01:22;;;;;;;1.55;1.45;;;;;;;5.19;43.94;101207.69;684495;28;91928;-65
2021/03/22 00:01:43;;;;;;;1.70;1.60;;;;;;;5.19;43.63;101205.00;688746;28;22081;-65
2021/03/22 00:02:05;;;;;;;2.05;1.73;;;;;;;5.18;43.88;101211.34;689947;28;16663;-65
2021/03/22 00:02:26;;;;;;;1.90;1.80;;;;;;;5.19;43.86;101202.34;688184;28;46241;-65
2021/03/22 00:02:47;;;;;;;1.70;1.60;;;;;;;5.17;43.66;101205.16;689565;28;22382;-65
2021/03/22 00:03:09;;;;;;;1.60;1.50;;;;;;;5.18;43.80;101203.31;689633;28;23246;-65
2021/03/22 00:03:30;;;;;;;1.58;1.30;;;;;;;5.17;43.71;101213.19;688637;28;45267;-65
2021/03/22 00:03:52;;;;;;;1.85;1.40;;;;;;;5.17;43.71;101204.28;690224;28;11575;-65
2021/03/22 00:04:13;;;;;;;1.60;1.50;;;;;;;5.16;43.55;101206.13;689125;28;42790;-65
2021/03/22 00:04:34;;;;;;;1.50;1.40;;;;;;;5.17;43.69;101212.31;689370;28;23538;-65
2021/03/22 00:04:55;;;;;;;1.73;1.40;;;;;;;5.17;43.82;101205.16;689796;28;18137;-65
2021/03/22 00:05:17;;;;;;;1.50;1.40;;;;;;;5.18;43.63;101216.69;689832;28;21278;-65
2021/03/22 00:05:39;;;;;;;1.70;1.60;;;;;;;5.15;43.63;101209.75;688826;28;37377;-65
2021/03/22 00:06:01;;;;;;;1.38;1.35;;;;;;;5.12;43.69;101203.81;690564;28;843;-65
2021/03/22 00:06:23;;;;;;;1.38;1.27;;;;;;;5.15;43.63;101208.91;688070;28;69516;-65
2021/03/22 00:06:44;;;;;;;1.50;1.40;;;;;;;5.16;43.60;101218.66;689568;28;22405;-65
2021/03/22 00:07:06;;;;;;;1.65;1.40;;;;;;;5.14;43.53;101210.75;685881;28;20029;-65
2021/03/22 00:07:27;;;;;;;1.60;1.50;;;;;;;5.15;43.55;101211.59;682199;28;43399;-65
2021/03/22 00:07:49;;;;;;;1.50;1.40;;;;;;;5.15;43.94;101215.13;682911;28;20707;-65
2021/03/22 00:08:11;;;;;;;1.33;1.30;;;;;;;5.16;43.72;101218.66;681698;28;44154;-65
2021/03/22 00:08:32;;;;;;;1.50;1.40;;;;;;;5.14;43.80;101207.22;682115;28;44407;-65
2021/03/22 00:08:54;;;;;;;1.50;1.40;;;;;;;5.15;43.59;101215.13;686794;28;8181;-65
2021/03/22 00:09:15;;;;;;;1.58;1.48;;;;;;;5.17;44.05;101217.66;689448;28;47377;-65
2021/03/22 00:09:36;;;;;;;2.15;1.60;;;;;;;5.16;43.76;101202.59;692477;28;21551;-65
2021/03/22 00:09:57;;;;;;;2.38;1.50;;;;;;;5.16;43.60;101216.00;692204;28;22404;-65
2021/03/22 00:10:19;;;;;;;1.95;1.70;;;;;;;5.16;43.86;101205.28;692325;28;21359;-65
2021/03/22 00:10:43;;;;;;;1.75;1.65;;;;;;;5.15;43.53;101203.56;691488;28;35635;-65
2021/03/22 00:11:04;;;;;;;1.52;1.42;;;;;;;5.16;43.72;101203.44;687622;28;81378;-65
2021/03/22 00:11:26;;;;;;;1.70;1.60;;;;;;;5.16;43.70;101206.13;685829;28;21336;-65
2021/03/22 00:11:47;;;;;;;1.55;1.45;;;;;;;5.18;43.98;101211.34;686353;28;45277;-65
2021/03/22 00:12:10;;;;;;;1.77;1.67;;;;;;;5.17;43.51;101212.31;689729;28;21521;-65
2021/03/22 00:12:31;;;;;;;3.25;1.48;;;;;;;5.17;43.51;101212.31;687454;28;69087;-65
2021/03/22 00:12:54;;;;;;;2.72;1.55;;;;;;;5.17;43.26;101204.28;689766;28;23512;-65
2021/03/22 00:13:17;;;;;;;1.70;1.60;;;;;;;5.16;43.01;101195.41;688326;28;69324;-65
2021/03/22 00:13:38;;;;;;;1.55;1.45;;;;;;;5.15;43.49;101198.22;690511;28;66622;-65
2021/03/22 00:13:59;;;;;;;1.50;1.40;;;;;;;5.16;43.38;101199.91;690796;28;22408;-65
2021/03/22 00:14:20;;;;;;;2.17;1.33;;;;;;;5.17;43.18;101204.28;689562;28;23845;-65
2021/03/22 00:14:41;;;;;;;2.40;1.50;;;;;;;5.17;43.46;101206.94;689281;28;23374;-65
2021/03/22 00:15:03;;;;;;;1.60;1.30;;;;;;;5.17;43.41;101213.19;689307;28;23418;-65
2021/03/22 00:15:26;;;;;;;1.48;1.30;;;;;;;5.17;43.45;101204.28;688868;28;45014;-65
2021/03/22 00:15:49;;;;;;;1.42;1.33;;;;;;;5.17;43.09;101207.81;684448;28;69489;-65
2021/03/22 00:16:11;;;;;;;1.67;1.58;;;;;;;5.16;43.04;101203.44;687339;28;905;-65
2021/03/22 00:16:32;;;;;;;2.00;1.60;;;;;;;5.18;43.32;101200.63;685752;28;32061;-65
2021/03/22 00:16:53;;;;;;;1.77;1.50;;;;;;;5.17;43.02;101204.28;686985;28;18285;-65
2021/03/22 00:17:15;;;;;;;1.45;1.35;;;;;;;5.17;43.06;101205.16;686509;28;20884;-66
2021/03/22 00:17:36;;;;;;;1.30;1.30;;;;;;;5.18;43.49;101200.63;686799;28;46530;-65
2021/03/22 00:17:58;;;;;;;1.38;1.27;;;;;;;5.18;43.23;101203.31;690435;28;8970;-65
2021/03/22 00:18:22;;;;;;;1.50;1.40;;;;;;;5.16;43.10;101199.91;690462;28;1493;-65
2021/03/22 00:18:44;;;;;;;1.55;1.45;;;;;;;5.16;43.22;101194.56;688226;28;68098;-65
2021/03/22 00:19:06;;;;;;;1.70;1.60;;;;;;;5.17;43.26;101201.59;688826;28;46434;-65
2021/03/22 00:19:28;;;;;;;1.83;1.63;;;;;;;5.16;43.30;101195.41;688695;28;45211;-65
2021/03/22 00:19:49;;;;;;;1.92;1.83;;;;;;;5.18;43.45;101198.78;688974;28;46344;-65
2021/03/22 00:20:11;;;;;;;1.65;1.55;;;;;;;5.18;43.29;101198.78;689927;28;22400;-65
2021/03/22 00:20:33;;;;;;;1.60;1.50;;;;;;;5.18;43.26;101196.09;688951;28;38621;-65
2021/03/22 00:20:54;;;;;;;2.67;1.73;;;;;;;5.18;43.38;101204.16;688835;28;47117;-65
2021/03/22 00:21:16;;;;;;;2.50;1.60;;;;;;;5.17;43.12;101197.09;690262;28;879;-65
2021/03/22 00:21:37;;;;;;;1.90;1.70;;;;;;;5.19;43.17;101200.50;688766;28;44513;-65
2021/03/22 00:21:58;;;;;;;1.60;1.50;;;;;;;5.18;42.91;101197.94;689965;28;22496;-65
2021/03/22 00:22:20;;;;;;;1.60;1.50;;;;;;;5.19;43.03;101199.66;689906;28;1413;-65
2021/03/22 00:22:41;;;;;;;1.80;1.70;;;;;;;5.18;43.19;101197.94;689522;28;22422;-65
2021/03/22 00:23:03;;;;;;;1.80;1.45;;;;;;;5.17;42.96;101193.56;690602;28;1910;-65
2021/03/22 00:23:24;;;;;;;2.33;1.55;;;;;;;5.19;42.85;101196.97;688842;28;41064;-65
2021/03/22 00:23:45;;;;;;;1.90;1.55;;;;;;;5.19;42.68;101196.97;689635;28;16416;-65
2021/03/22 00:24:07;;;;;;;2.40;1.67;;;;;;;5.19;42.73;101200.50;689438;28;16528;-65
2021/03/22 00:24:28;;;;;;;1.75;1.55;;;;;;;5.20;42.84;101199.53;689179;28;46385;-65
2021/03/22 00:24:50;;;;;;;2.13;1.80;;;;;;;5.20;42.95;101196.84;685901;28;15240;-65
2021/03/22 00:25:12;;;;;;;1.80;1.70;;;;;;;5.20;42.85;101199.53;686686;28;32443;-65
2021/03/22 00:25:35;;;;;;;1.60;1.50;;;;;;;5.20;42.76;101195.97;686022;28;38963;-65
2021/03/22 00:25:56;;;;;;;1.45;1.35;;;;;;;5.19;42.92;101197.81;685232;28;65517;-65
2021/03/22 00:26:17;;;;;;;1.58;1.48;;;;;;;5.20;43.38;101196.84;687015;28;21777;-65
2021/03/22 00:26:38;;;;;;;1.35;1.30;;;;;;;5.21;43.16;101192.34;687988;28;14860;-65
2021/03/22 00:26:59;;;;;;;2.30;1.60;;;;;;;5.19;43.02;101195.16;689260;28;24442;-65
2021/03/22 00:27:21;;;;;;;1.88;1.65;;;;;;;5.21;43.10;101195.00;688296;28;44486;-65
2021/03/22 00:27:42;;;;;;;1.67;1.58;;;;;;;5.20;43.13;101194.16;689239;28;22426;-65
2021/03/22 00:28:05;;;;;;;2.13;1.65;;;;;;;5.18;42.98;101189.91;689095;28;45447;-65
2021/03/22 00:28:26;;;;;;;1.60;1.50;;;;;;;5.21;42.63;101197.69;689070;28;46430;-65
2021/03/22 00:28:47;;;;;;;1.40;1.30;;;;;;;5.19;42.51;101192.47;689723;28;21535;-65
2021/03/22 00:29:08;;;;;;;2.33;1.60;;;;;;;5.19;42.65;101188.94;689283;28;22425;-65
2021/03/22 00:29:29;;;;;;;2.45;1.58;;;;;;;5.20;42.84;101196.84;689569;28;22219;-65
2021/03/22 00:29:51;;;;;;;1.60;1.50;;;;;;;5.20;42.73;101195.97;688381;28;46426;-65
2021/03/22 00:30:18;;;;;;;1.50;1.40;;;;;;;5.19;42.50;101194.31;689573;28;23486;-65
2021/03/22 00:30:42;;;;;;;1.75;1.60;;;;;;;5.19;42.68;101195.16;685477;28;137312;-65
2021/03/22 00:31:03;;;;;;;1.70;1.60;;;;;;;5.19;42.67;101192.47;687367;28;92303;-65
2021/03/22 00:31:24;;;;;;;2.50;1.50;;;;;;;5.19;42.42;101189.78;688618;28;39730;-65
2021/03/22 00:31:45;;;;;;;2.20;1.45;;;;;;;5.19;42.63;101191.63;690807;28;18648;-65
2021/03/22 00:32:08;;;;;;;1.50;1.40;;;;;;;5.20;42.43;101195.97;689477;28;22487;-65
2021/03/22 00:32:29;;;;;;;1.70;1.60;;;;;;;5.20;42.75;101193.31;688349;28;45512;-65
2021/03/22 00:32:50;;;;;;;1.88;1.58;;;;;;;5.18;42.72;101193.44;690037;28;20862;-65
2021/03/22 00:33:12;;;;;;;2.47;1.60;;;;;;;5.20;42.82;101193.31;688620;28;39464;-65
2021/03/22 00:33:33;;;;;;;1.70;1.60;;;;;;;5.19;42.67;101192.47;689703;28;9850;-65
2021/03/22 00:33:54;;;;;;;1.70;1.60;;;;;;;5.18;42.35;101198.78;689129;28;41089;-65
2021/03/22 00:34:16;;;;;;;1.63;1.52;;;;;;;5.19;42.61;101194.31;690548;28;1360;-65
2021/03/22 00:34:37;;;;;;;1.63;1.50;;;;;;;5.19;42.61;101195.16;690265;28;24387;-65
2021/03/22 00:34:58;;;;;;;2.30;1.60;;;;;;;5.17;42.54;101191.75;689689;28;21504;-66
2021/03/22 00:35:20;;;;;;;1.77;1.60;;;;;;;5.19;42.57;101196.97;690141;28;12377;-65
2021/03/22 00:35:41;;;;;;;1.90;1.73;;;;;;;5.17;42.50;101191.75;688405;28;28672;-66
2021/03/22 00:36:04;;;;;;;2.08;1.88;;;;;;;5.17;42.57;101194.44;689435;28;24448;-66
2021/03/22 00:36:25;;;;;;;2.35;1.90;;;;;;;5.18;42.52;101187.25;690240;28;1458;-68
2021/03/22 00:36:47;;;;;;;1.63;1.48;;;;;;;5.18;42.56;101198.78;690637;28;1004;-66
2021/03/22 00:37:08;;;;;;;1.60;1.45;;;;;;;5.18;42.50;101195.28;689908;28;23536;-67
2021/03/22 00:37:30;;;;;;;3.85;2.22;;;;;;;5.19;42.78;101194.31;689045;28;35502;-66
2021/03/22 00:37:51;;;;;;;26.65;13.27;;;;;;;5.19;43.03;101200.50;690622;28;2858;-66
2021/03/22 00:38:13;;;;;;;58.85;28.30;;;;;;;5.17;43.02;101189.06;688683;28;35470;-67
2021/03/22 00:38:36;;;;;;;72.53;32.00;;;;;;;5.19;43.17;101195.16;690583;28;925;-65
2021/03/22 00:38:57;;;;;;;64.25;28.90;;;;;;;5.21;43.35;101192.34;688841;28;46259;-66
2021/03/22 00:39:18;;;;;;;55.65;24.17;;;;;;;5.21;42.98;101193.16;689440;28;22404;-66
2021/03/22 00:39:39;;;;;;;37.90;16.60;;;;;;;5.22;43.28;101202.91;689591;28;23298;-66
2021/03/22 00:40:00;;;;;;;15.07;8.05;;;;;;;5.23;42.86;101198.41;689608;28;12110;-67
2021/03/22 00:40:23;;;;;;;7.82;4.97;;;;;;;5.23;42.91;101199.28;689563;28;23389;-66
2021/03/22 00:40:46;;;;;;;5.07;3.47;;;;;;;5.23;42.72;101199.28;686958;28;92334;-66
2021/03/22 00:41:07;;;;;;;3.13;2.58;;;;;;;5.24;42.99;101200.94;688833;28;46362;-66
2021/03/22 00:41:28;;;;;;;2.88;1.90;;;;;;;5.26;43.32;101203.50;689466;28;23587;-66
2021/03/22 00:41:49;;;;;;;1.90;1.67;;;;;;;5.25;42.64;101204.50;689381;28;45827;-66
2021/03/22 00:42:11;;;;;;;1.52;1.42;;;;;;;5.25;42.72;101201.81;690595;28;907;-66
2021/03/22 00:42:34;;;;;;;1.48;1.38;;;;;;;5.26;43.33;101198.13;685906;28;35490;-66
2021/03/22 00:42:55;;;;;;;1.50;1.40;;;;;;;5.27;42.98;101202.53;687563;28;950;-66
2021/03/22 00:43:16;;;;;;;1.70;1.40;;;;;;;5.26;42.87;101197.28;687460;28;5719;-66
2021/03/22 00:43:38;;;;;;;1.35;1.20;;;;;;;5.24;42.52;101200.09;686584;28;45255;-65
2021/03/22 00:43:59;;;;;;;1.73;1.17;;;;;;;5.24;42.63;101197.44;687378;28;10751;-65
2021/03/22 00:44:20;;;;;;;1.50;1.40;;;;;;;5.23;42.69;101195.72;687839;28;13187;-65
2021/03/22 00:44:41;;;;;;;1.50;1.40;;;;;;;5.23;42.58;101201.06;690282;28;11446;-66
2021/03/22 00:45:04;;;;;;;1.60;1.50;;;;;;;5.23;42.93;101198.41;689827;28;23440;-66
2021/03/22 00:45:25;;;;;;;1.50;1.40;;;;;;;5.22;42.72;101194.03;688825;28;46377;-65
2021/03/22 00:45:47;;;;;;;1.60;1.50;;;;;;;5.20;42.44;101195.97;688536;28;46351;-65
2021/03/22 00:46:08;;;;;;;1.60;1.40;;;;;;;5.21;42.71;101195.84;689896;28;23415;-66
2021/03/22 00:46:29;;;;;;;1.77;1.50;;;;;;;5.20;42.57;101193.31;689380;28;22413;-66
2021/03/22 00:46:51;;;;;;;1.20;1.10;;;;;;;5.18;42.86;101189.91;688754;28;46069;-66
2021/03/22 00:47:12;;;;;;;1.10;1.10;;;;;;;5.20;42.87;101190.63;689010;28;22363;-66
2021/03/22 00:47:33;;;;;;;1.40;1.40;;;;;;;5.19;42.91;101189.78;689330;28;18161;-65
2021/03/22 00:47:55;;;;;;;1.50;1.40;;;;;;;5.20;43.03;101195.97;689864;28;12282;-66
2021/03/22 00:48:16;;;;;;;2.20;1.42;;;;;;;5.20;43.25;101196.84;686819;28;45271;-66
2021/03/22 00:48:37;;;;;;;2.50;1.30;;;;;;;5.19;43.26;101192.47;686799;28;23598;-66
2021/03/22 00:48:58;;;;;;;2.50;1.40;;;;;;;5.18;42.81;101193.44;686927;28;23481;-65
2021/03/22 00:49:20;;;;;;;1.98;1.30;;;;;;;5.19;42.90;101196.97;686891;28;23452;-66
2021/03/22 00:49:41;;;;;;;2.40;1.35;;;;;;;5.18;43.01;101196.09;686176;28;44378;-67
2021/03/22 00:50:04;;;;;;;1.52;1.42;;;;;;;5.19;42.95;101194.31;686384;28;46223;-67
2021/03/22 00:50:29;;;;;;;2.05;1.50;;;;;;;5.18;42.94;101190.75;687605;28;67554;-66
2021/03/22 00:50:52;;;;;;;1.63;1.52;;;;;;;5.17;42.82;101191.75;686500;28;115134;-66
2021/03/22 00:51:13;;;;;;;1.45;1.35;;;;;;;5.15;43.10;101193.69;686553;28;63143;-66
2021/03/22 00:51:35;;;;;;;1.48;1.38;;;;;;;5.17;43.52;101191.75;685594;28;23078;-65
2021/03/22 00:51:56;;;;;;;2.10;1.40;;;;;;;5.20;43.30;101196.84;685534;28;23504;-65
2021/03/22 00:52:18;;;;;;;2.15;1.40;;;;;;;5.19;43.22;101196.97;684388;28;45157;-66
2021/03/22 00:52:39;;;;;;;1.45;1.30;;;;;;;5.17;43.09;101197.09;685329;28;23379;-65
2021/03/22 00:53:00;;;;;;;1.23;1.20;;;;;;;5.19;43.03;101202.34;685925;28;23395;-65
2021/03/22 00:53:21;;;;;;;2.22;1.50;;;;;;;5.18;43.11;101197.94;686570;28;22411;-68
2021/03/22 00:53:43;;;;;;;2.63;1.70;;;;;;;5.17;43.27;101193.56;688427;28;46608;-66
2021/03/22 00:54:04;;;;;;;2.97;1.45;;;;;;;5.18;43.06;101203.31;690305;28;1747;-66
2021/03/22 00:54:25;;;;;;;2.05;1.55;;;;;;;5.17;43.32;101201.59;690156;28;15519;-69
2021/03/22 00:54:46;;;;;;;2.17;1.70;;;;;;;5.17;43.20;101198.91;689687;28;6218;-66
2021/03/22 00:55:09;;;;;;;1.58;1.48;;;;;;;5.15;43.40;101193.69;689247;28;46332;-66
2021/03/22 00:55:30;;;;;;;1.95;1.73;;;;;;;5.16;43.03;101197.25;688991;28;46355;-66
2021/03/22 00:55:53;;;;;;;1.70;1.50;;;;;;;5.16;43.13;101194.56;687928;28;1035;-66
2021/03/22 00:56:14;;;;;;;1.65;1.55;;;;;;;5.16;42.87;101190.03;687318;28;44368;-66
2021/03/22 00:56:35;;;;;;;1.75;1.60;;;;;;;5.16;42.88;101189.22;687687;28;22284;-66
2021/03/22 00:56:56;;;;;;;2.03;1.50;;;;;;;5.16;42.89;101197.25;688131;28;14917;-66
2021/03/22 00:57:17;;;;;;;1.65;1.55;;;;;;;5.15;42.96;101191.00;688468;28;17554;-66
2021/03/22 00:57:39;;;;;;;1.67;1.58;;;;;;;5.16;42.98;101191.88;688271;28;31297;-66
2021/03/22 00:58:00;;;;;;;1.40;1.35;;;;;;;5.17;43.12;101198.91;690148;28;1364;-66
2021/03/22 00:58:21;;;;;;;2.55;1.42;;;;;;;5.14;43.12;101192.00;689316;28;21566;-66
2021/03/22 00:58:43;;;;;;;2.30;1.40;;;;;;;5.16;43.70;101197.25;689038;28;22213;-66
2021/03/22 00:59:06;;;;;;;1.70;1.60;;;;;;;5.16;43.20;101195.41;689711;28;21351;-66
2021/03/22 00:59:27;;;;;;;2.28;1.65;;;;;;;5.15;42.99;101193.69;688224;28;69575;-65
2021/03/22 00:59:48;;;;;;;1.70;1.60;;;;;;;5.16;43.27;101205.28;689545;28;21663;-65
2021/03/22 01:00:15;;;;;;;1.80;1.60;;;;;;;5.15;43.19;101193.69;689778;28;22295;-65
2021/03/22 01:00:39;;;;;;;3.42;2.05;;;;;;;5.15;43.17;101192.84;685624;28;136299;-65
2021/03/22 01:01:01;;;;;;;14.02;7.85;;;;;;;5.10;43.34;101190.56;686957;28;90445;-65
2021/03/22 01:01:22;;;;;;;25.73;13.52;;;;;;;5.11;43.21;101186.91;688681;28;44400;-65
2021/03/22 01:01:43;;;;;;;14.23;8.25;;;;;;;5.11;43.28;101194.09;689741;28;15896;-65
2021/03/22 01:02:05;;;;;;;11.20;6.20;;;;;;;5.10;43.15;101189.72;689733;28;23420;-65
2021/03/22 01:02:26;;;;;;;7.28;4.32;;;;;;;5.10;43.26;101195.09;689381;28;35258;-65
2021/03/22 01:02:48;;;;;;;6.10;3.60;;;;;;;5.08;43.46;101189.84;689848;28;23420;-65
2021/03/22 01:03:12;;;;;;;4.07;3.00;;;;;;;5.08;43.41;101189.00;689439;28;22756;-65
2021/03/22 01:03:35;;;;;;;3.43;2.40;;;;;;;5.08;43.51;101189.84;686304;28;115438;-67
2021/03/22 01:03:56;;;;;;;3.85;2.10;;;;;;;5.07;43.42;101198.84;685054;28;92258;-65
2021/03/22 01:04:17;;;;;;;3.78;1.80;;;;;;;5.07;43.49;101193.50;688239;28;23459;-66
2021/03/22 01:04:39;;;;;;;2.20;1.80;;;;;;;5.08;43.72;101186.31;689416;28;963;-66
2021/03/22 01:05:03;;;;;;;1.80;1.70;;;;;;;5.08;43.80;101192.53;688039;28;5617;-66
2021/03/22 01:05:26;;;;;;;1.60;1.50;;;;;;;5.08;43.71;101183.63;686719;28;69530;-66
2021/03/22 01:05:47;;;;;;;1.80;1.70;;;;;;;5.08;43.84;101187.19;686836;28;64329;-66
2021/03/22 01:06:09;;;;;;;1.77;1.67;;;;;;;5.08;43.96;101197.03;689022;28;46321;-66
2021/03/22 01:06:30;;;;;;;1.88;1.58;;;;;;;5.08;43.79;101186.31;690440;28;1619;-66
2021/03/22 01:06:52;;;;;;;1.65;1.40;;;;;;;5.07;43.64;101195.34;690160;28;1344;-65
2021/03/22 01:07:17;;;;;;;1.50;1.50;;;;;;;5.05;43.77;101188.28;688195;28;61518;-65
2021/03/22 01:07:41;;;;;;;2.42;1.70;;;;;;;5.07;43.80;101196.19;689165;28;38098;-66
2021/03/22 01:08:03;;;;;;;2.20;1.67;;;;;;;5.07;43.53;101198.03;688934;28;22391;-65
2021/03/22 01:08:27;;;;;;;2.00;1.60;;;;;;;5.05;43.74;101193.63;689957;28;1407;-66
2021/03/22 01:08:48;;;;;;;1.70;1.60;;;;;;;5.04;43.72;101191.91;686570;28;106363;-65
2021/03/22 01:09:09;;;;;;;1.80;1.48;;;;;;;5.07;43.94;101198.03;689465;28;22266;-65
2021/03/22 01:09:30;;;;;;;1.58;1.40;;;;;;;5.06;43.63;101197.16;689345;28;23566;-65
2021/03/22 01:09:51;;;;;;;2.10;1.63;;;;;;;5.05;43.91;101198.16;689370;28;8600;-66
2021/03/22 01:10:23;;;;;;;1.75;1.42;;;;;;;5.01;43.71;101196.69;689995;28;8479;-68
2021/03/22 01:10:47;;;;;;;1.60;1.50;;;;;;;5.04;43.95;101199.94;685844;28;134612;-65
2021/03/22 01:11:10;;;;;;;1.67;1.42;;;;;;;5.05;43.77;101201.66;686764;28;93072;-66
2021/03/22 01:11:31;;;;;;;2.22;1.50;;;;;;;5.03;43.92;101200.09;687592;28;69523;-65
2021/03/22 01:11:52;;;;;;;1.70;1.60;;;;;;;5.04;44.04;101194.59;687058;28;18276;-66
2021/03/22 01:12:14;;;;;;;1.55;1.45;;;;;;;5.04;43.77;101199.13;687221;28;12243;-67
2021/03/22 01:12:35;;;;;;;1.40;1.30;;;;;;;5.03;43.58;101200.09;686726;28;23578;-65
2021/03/22 01:12:57;;;;;;;1.75;1.30;;;;;;;5.02;43.82;101191.22;686286;28;43136;-64
2021/03/22 01:13:20;;;;;;;1.65;1.50;;;;;;;5.01;43.87;101192.19;685823;28;45487;-65
2021/03/22 01:13:46;;;;;;;1.70;1.60;;;;;;;5.00;43.76;101195.00;688250;28;1085;-65
2021/03/22 01:14:07;;;;;;;1.73;1.63;;;;;;;4.99;43.90;101196.00;686370;28;116801;-64
2021/03/22 01:14:28;;;;;;;1.65;1.55;;;;;;;5.00;44.00;101201.22;689880;28;21493;-65
2021/03/22 01:14:49;;;;;;;1.63;1.48;;;;;;;4.98;43.89;101197.78;688648;28;22418;-66
2021/03/22 01:15:11;;;;;;;1.63;1.52;;;;;;;4.97;43.80;101193.44;689018;28;40856;-66
2021/03/22 01:15:33;;;;;;;1.42;1.33;;;;;;;4.96;43.65;101194.41;688706;28;39940;-66
2021/03/22 01:15:54;;;;;;;1.40;1.30;;;;;;;4.95;43.66;101195.38;689313;28;22478;-66
2021/03/22 01:16:16;;;;;;;2.35;1.60;;;;;;;4.95;43.79;101197.22;688654;28;46343;-65
2021/03/22 01:16:38;;;;;;;2.00;1.40;;;;;;;4.93;43.81;101192.00;688135;28;45250;-66
2021/03/22 01:17:00;;;;;;;1.50;1.40;;;;;;;4.91;43.80;101193.94;688883;28;46323;-66
2021/03/22 01:17:21;;;;;;;2.92;1.70;;;;;;;4.91;43.80;101190.44;689629;28;22467;-66
2021/03/22 01:17:42;;;;;;;3.05;1.50;;;;;;;4.90;43.99;101186.06;689495;28;23397;-66
2021/03/22 01:18:03;;;;;;;2.42;1.40;;;;;;;4.91;43.96;101195.78;689789;28;23437;-66
2021/03/22 01:18:29;;;;;;;3.63;1.40;;;;;;;4.88;44.11;101192.38;688833;28;47849;-66
2021/03/22 01:18:53;;;;;;;1.77;1.50;;;;;;;4.90;43.95;101197.59;685768;28;136880;-65
2021/03/22 01:19:16;;;;;;;2.33;1.77;;;;;;;4.88;43.81;101197.72;686851;28;93207;-65
2021/03/22 01:19:37;;;;;;;1.50;1.40;;;;;;;4.86;44.05;101191.66;688080;28;69240;-66
2021/03/22 01:19:58;;;;;;;1.50;1.40;;;;;;;4.88;43.97;101196.88;687397;28;21289;-65
2021/03/22 01:20:22;;;;;;;1.30;1.30;;;;;;;4.87;44.13;101193.38;688114;28;15321;-66
2021/03/22 01:20:46;;;;;;;1.40;1.30;;;;;;;4.88;44.23;101196.88;684815;28;113914;-65
2021/03/22 01:21:10;;;;;;;1.40;1.30;;;;;;;4.87;44.29;101189.81;685682;28;92191;-66
2021/03/22 01:21:36;;;;;;;1.48;1.40;;;;;;;4.87;44.14;101193.38;685151;28;92036;-65
2021/03/22 01:22:00;;;;;;;1.75;1.55;;;;;;;4.86;44.35;101190.81;685363;28;138096;-65
2021/03/22 01:22:21;;;;;;;1.75;1.45;;;;;;;4.84;44.61;101185.59;686920;28;90185;-65
2021/03/22 01:22:42;;;;;;;1.77;1.40;;;;;;;4.85;44.53;101187.28;689813;28;22235;-65
2021/03/22 01:23:03;;;;;;;2.30;1.42;;;;;;;4.84;44.42;101184.72;689826;28;21257;-65
2021/03/22 01:23:24;;;;;;;1.50;1.40;;;;;;;4.85;44.39;101191.78;689471;28;22474;-65
2021/03/22 01:23:46;;;;;;;1.30;1.20;;;;;;;4.83;44.23;101189.25;689800;28;18240;-65
2021/03/22 01:24:08;;;;;;;1.40;1.30;;;;;;;4.83;44.34;101189.25;689430;28;22279;-65
2021/03/22 01:24:31;;;;;;;1.73;1.50;;;;;;;4.81;44.33;101185.84;687928;28;70619;-65
2021/03/22 01:24:53;;;;;;;1.60;1.50;;;;;;;4.80;44.43;101192.19;687356;28;67535;-65
2021/03/22 01:25:14;;;;;;;1.63;1.52;;;;;;;4.82;44.59;101187.53;689552;28;22401;-64
2021/03/22 01:25:35;;;;;;;2.67;1.55;;;;;;;4.82;44.72;101192.03;688654;28;44235;-65
2021/03/22 01:25:56;;;;;;;2.13;1.48;;;;;;;4.82;44.90;101179.50;689158;28;23543;-64
2021/03/22 01:26:20;;;;;;;7.05;1.50;;;;;;;4.84;44.95;101185.59;689719;28;22148;-65
2021/03/22 01:26:42;;;;;;;2.42;1.50;;;;;;;4.84;44.77;101190.94;687002;28;92069;-64
2021/03/22 01:27:07;;;;;;;1.30;1.20;;;;;;;4.84;44.54;101185.59;689021;28;46310;-64
2021/03/22 01:27:28;;;;;;;1.50;1.40;;;;;;;4.85;44.57;101183.75;686874;28;92445;-65
2021/03/22 01:27:49;;;;;;;1.55;1.45;;;;;;;4.83;44.57;101189.25;689222;28;22299;-65
2021/03/22 01:28:12;;;;;;;1.63;1.35;;;;;;;4.84;44.68;101196.31;688395;28;44382;-62
2021/03/22 01:28:33;;;;;;;2.03;1.50;;;;;;;4.83;44.75;101183.88;688415;28;59995;-64
2021/03/22 01:28:55;;;;;;;1.40;1.30;;;;;;;4.85;44.94;101189.13;689906;28;23456;-65
2021/03/22 01:29:18;;;;;;;1.92;1.20;;;;;;;4.86;44.70;101185.47;688804;28;44258;-64
2021/03/22 01:29:41;;;;;;;1.23;1.17;;;;;;;4.88;44.82;101186.19;687973;28;69533;-65
2021/03/22 01:30:12;;;;;;;1.77;1.30;;;;;;;4.85;44.62;101187.28;687393;28;55560;-66
2021/03/22 01:30:39;;;;;;;1.38;1.27;;;;;;;4.84;44.51;101185.59;685645;28;137810;-65
2021/03/22 01:31:00;;;;;;;1.90;1.37;;;;;;;4.82;44.43;101184.84;682731;28;160970;-64
2021/03/22 01:31:22;;;;;;;2.03;1.50;;;;;;;4.79;44.64;101179.75;686743;28;45299;-64
2021/03/22 01:31:44;;;;;;;1.50;1.40;;;;;;;4.83;44.68;101188.41;686883;28;41752;-64
2021/03/22 01:32:07;;;;;;;1.60;1.50;;;;;;;4.80;44.57;101177.97;687521;28;39668;-66
2021/03/22 01:32:28;;;;;;;1.58;1.40;;;;;;;4.81;44.82;101183.19;686671;28;68501;-64
2021/03/22 01:32:49;;;;;;;2.38;1.58;;;;;;;4.78;44.72;101177.22;688131;28;23410;-64
2021/03/22 01:33:14;;;;;;;2.08;1.60;;;;;;;4.78;44.83;101179.88;689281;28;22464;-66
2021/03/22 01:33:38;;;;;;;2.03;1.40;;;;;;;4.80;44.96;101181.47;685558;28;115993;-65
2021/03/22 01:33:59;;;;;;;1.65;1.50;;;;;;;4.80;44.90;101175.28;689626;28;90490;-65
2021/03/22 01:34:20;;;;;;;2.10;1.60;;;;;;;4.81;45.13;101175.16;692441;28;12258;-66
2021/03/22 01:34:41;;;;;;;2.53;1.50;;;;;;;4.80;45.01;101178.78;692652;28;13654;-64
2021/03/22 01:35:04;;;;;;;2.00;1.50;;;;;;;4.81;45.01;101176.97;691980;28;11302;-65
2021/03/22 01:35:25;;;;;;;2.30;1.40;;;;;;;4.81;45.08;101179.63;690729;28;70464;-65
2021/03/22 01:35:46;;;;;;;1.75;1.50;;;;;;;4.81;45.20;101174.28;691255;28;6598;-65
2021/03/22 01:36:10;;;;;;;1.40;1.30;;;;;;;4.82;45.18;101171.47;689674;28;16699;-64
2021/03/22 01:36:32;;;;;;;2.03;1.40;;;;;;;4.84;45.69;101179.38;687122;28;83523;-64
2021/03/22 01:36:54;;;;;;;2.13;1.60;;;;;;;4.85;45.35;101181.09;688909;28;47532;-64
2021/03/22 01:37:15;;;;;;;2.15;1.42;;;;;;;4.85;45.10;101175.72;685890;28;28318;-65
2021/03/22 01:37:37;;;;;;;1.92;1.60;;;;;;;4.85;45.35;101176.56;687049;28;13035;-65
2021/03/22 01:37:58;;;;;;;3.28;1.70;;;;;;;4.84;45.23;101169.53;685674;28;44373;-64
2021/03/22 01:38:19;;;;;;;2.05;1.50;;;;;;;4.84;45.31;101177.56;686253;28;23510;-65
2021/03/22 01:38:41;;;;;;;1.90;1.33;;;;;;;4.85;45.05;101175.72;686186;28;22480;-64
2021/03/22 01:39:06;;;;;;;2.17;1.48;;;;;;;4.84;45.14;101174.03;686980;28;37479;-65
2021/03/22 01:39:31;;;;;;;1.60;1.50;;;;;;;4.84;45.09;101174.91;686571;28;115944;-66
2021/03/22 01:39:59;;;;;;;2.30;1.48;;;;;;;4.84;45.25;101180.25;688199;28;59584;-65
2021/03/22 01:40:41;;;;;;;2.00;1.40;;;;;;;4.85;45.26;101173.06;689628;28;23422;-67
2021/03/22 01:41:16;;;;;;;2.42;1.73;;;;;;;4.82;45.27;101171.47;687818;28;60355;-65
2021/03/22 01:41:56;;;;;;;1.50;1.40;;;;;;;4.82;45.38;101174.16;685947;28;112033;-65
2021/03/22 01:42:25;;;;;;;4.60;1.60;;;;;;;4.82;45.37;101176.00;685608;28;137636;-67
2021/03/22 01:42:57;;;;;;;2.97;1.70;;;;;;;4.82;45.39;101165.28;685435;28;136232;-64
2021/03/22 01:43:30;;;;;;;1.65;1.45;;;;;;;4.80;45.61;101168.09;685837;28;132666;-64
2021/03/22 01:44:14;;;;;;;1.38;1.27;;;;;;;4.81;45.60;101174.28;686394;28;116226;-65
2021/03/22 01:44:36;;;;;;;2.20;1.58;;;;;;;4.80;45.67;101169.94;674493;28;130213;-65
2021/03/22 01:44:59;;;;;;;1.70;1.60;;;;;;;4.80;45.45;101164.56;688272;28;46274;-64
2021/03/22 01:45:20;;;;;;;1.73;1.63;;;;;;;4.79;45.68;101173.56;687362;28;69516;-66
2021/03/22 01:45:41;;;;;;;1.60;1.50;;;;;;;4.81;45.75;101167.13;689522;28;14670;-65
2021/03/22 01:46:02;;;;;;;2.08;1.70;;;;;;;4.81;45.91;101168.94;689861;28;17281;-65
2021/03/22 01:46:24;;;;;;;6.25;3.85;;;;;;;4.81;45.74;101172.47;690098;28;13075;-65